createdAt,value
2018-07-23T00:02:06.968Z,56.13
2018-07-23T00:04:37.261Z,55.59
2018-07-23T00:07:08.145Z,55.41
2018-07-23T00:09:38.888Z,54.01
2018-07-23T00:12:09.785Z,53.37
2018-07-23T00:14:40.061Z,52.08
2018-07-23T00:17:10.485Z,52.25
2018-07-23T00:19:40.753Z,51.92
2018-07-23T00:22:11.535Z,52.73
2018-07-23T00:24:41.769Z,53.47
2018-07-23T00:27:12.173Z,52.71
2018-07-23T00:29:42.473Z,52.80
2018-07-23T00:32:12.916Z,52.72
2018-07-23T00:34:43.194Z,52.29
2018-07-23T00:37:13.721Z,53.04
2018-07-23T00:39:43.993Z,53.80
2018-07-23T00:42:14.381Z,53.15
2018-07-23T00:44:44.650Z,53.56
2018-07-23T00:47:15.086Z,54.91
2018-07-23T00:49:45.637Z,55.17
2018-07-23T00:52:16.385Z,55.86
2018-07-23T00:54:46.617Z,56.23
2018-07-23T00:57:40.685Z,55.85
2018-07-23T01:00:18.321Z,56.22
2018-07-23T01:02:49.192Z,55.41
2018-07-23T01:05:19.444Z,54.43
2018-07-23T01:07:49.921Z,54.53
2018-07-23T01:10:43.034Z,53.82
2018-07-23T01:13:13.816Z,56.24
2018-07-23T01:15:44.492Z,61.58
2018-07-23T01:18:15.489Z,64.95
2018-07-23T01:20:46.072Z,66.58
2018-07-23T01:23:16.793Z,64.79
2018-07-23T01:25:47.532Z,64.86
2018-07-23T01:28:18.397Z,65.60
2018-07-23T01:30:49.064Z,66.76
2018-07-23T01:33:19.748Z,66.71
2018-07-23T01:35:50.376Z,68.07
2018-07-23T01:38:20.621Z,68.25
2018-07-23T01:40:51.621Z,67.07
2018-07-23T01:43:22.093Z,65.71
2018-07-23T01:45:52.893Z,66.25
2018-07-23T01:48:23.448Z,65.96
2018-07-23T01:50:53.985Z,65.22
2018-07-23T01:53:24.596Z,64.33
2018-07-23T01:55:55.417Z,63.24
2018-07-23T01:58:26.112Z,62.53
2018-07-23T02:00:56.866Z,63.18
2018-07-23T02:03:27.541Z,62.54
2018-07-23T02:05:58.157Z,62.71
2018-07-23T02:08:28.989Z,62.53
2018-07-23T02:10:59.256Z,61.63
2018-07-23T02:13:29.681Z,61.78
2018-07-23T02:16:00.141Z,61.90
2018-07-23T02:18:30.749Z,62.16
2018-07-23T02:21:01.160Z,62.53
2018-07-23T02:23:31.440Z,62.53
2018-07-23T02:26:01.785Z,63.78
2018-07-23T02:28:32.012Z,63.41
2018-07-23T02:31:02.241Z,64.59
2018-07-23T02:33:32.532Z,65.35
2018-07-23T02:36:02.753Z,65.56
2018-07-23T02:38:33.060Z,65.46
2018-07-23T02:41:03.387Z,65.21
2018-07-23T02:43:33.918Z,64.55
2018-07-23T02:46:04.254Z,65.68
2018-07-23T02:48:35.001Z,64.86
2018-07-23T02:51:05.349Z,64.09
2018-07-23T02:53:35.663Z,63.80
2018-07-23T02:56:06.053Z,64.47
2018-07-23T02:58:36.620Z,63.33
2018-07-23T03:01:06.953Z,62.85
2018-07-23T03:03:37.479Z,63.20
2018-07-23T03:06:07.717Z,63.28
2018-07-23T03:08:38.341Z,62.88
2018-07-23T03:11:08.765Z,62.79
2018-07-23T03:13:39.233Z,63.47
2018-07-23T03:16:09.705Z,63.14
2018-07-23T03:18:40.343Z,62.55
2018-07-23T03:21:10.576Z,63.53
2018-07-23T03:23:40.888Z,63.24
2018-07-23T03:26:11.221Z,62.97
2018-07-23T03:28:42.759Z,63.33
2018-07-23T03:31:13.160Z,63.02
2018-07-23T03:33:43.524Z,62.86
2018-07-23T03:36:13.929Z,62.05
2018-07-23T03:38:44.328Z,62.37
2018-07-23T03:41:14.909Z,61.82
2018-07-23T03:43:45.265Z,62.14
2018-07-23T03:46:15.669Z,62.10
2018-07-23T03:48:46.014Z,61.86
2018-07-23T03:51:16.426Z,61.92
2018-07-23T03:53:46.822Z,61.76
2018-07-23T03:56:17.281Z,61.10
2018-07-23T03:58:47.663Z,61.01
2018-07-23T04:01:18.326Z,60.73
2018-07-23T04:03:48.674Z,59.91
2018-07-23T04:06:19.065Z,60.70
2018-07-23T04:08:49.410Z,60.93
2018-07-23T04:11:20.195Z,60.22
2018-07-23T04:13:50.574Z,59.92
2018-07-23T04:16:20.985Z,60.58
2018-07-23T04:18:51.342Z,60.15
2018-07-23T04:21:22.494Z,59.35
2018-07-23T04:23:52.838Z,59.52
2018-07-23T04:26:23.285Z,57.92
2018-07-23T04:28:53.646Z,58.29
2018-07-23T04:31:24.463Z,57.55
2018-07-23T04:33:54.822Z,57.22
2018-07-23T04:36:25.224Z,56.85
2018-07-23T04:38:55.645Z,55.74
2018-07-23T04:41:26.023Z,55.68
2018-07-23T04:43:56.360Z,55.55
2018-07-23T04:46:26.846Z,56.08
2018-07-23T04:48:57.214Z,55.59
2018-07-23T04:51:27.874Z,55.38
2018-07-23T04:53:58.222Z,54.94
2018-07-23T04:56:28.818Z,54.57
2018-07-23T04:58:59.226Z,54.66
2018-07-23T05:01:29.890Z,52.93
2018-07-23T05:04:00.578Z,52.12
2018-07-23T05:06:31.662Z,51.39
2018-07-23T05:09:02.017Z,50.64
2018-07-23T05:11:32.605Z,49.68
2018-07-23T05:14:03.011Z,49.98
2018-07-23T05:16:33.664Z,48.97
2018-07-23T05:19:04.034Z,47.27
2018-07-23T05:21:34.441Z,48.28
2018-07-23T05:24:04.700Z,49.04
2018-07-23T05:26:35.420Z,49.63
2018-07-23T05:29:05.687Z,50.35
2018-07-23T05:31:36.317Z,49.85
2018-07-23T05:34:06.626Z,49.26
2018-07-23T05:36:37.012Z,49.93
2018-07-23T05:39:10.945Z,49.35
2018-07-23T05:41:41.708Z,47.66
2018-07-23T05:44:11.948Z,49.27
2018-07-23T05:46:42.236Z,47.71
2018-07-23T05:49:12.509Z,45.49
2018-07-23T05:51:42.790Z,45.78
2018-07-23T05:54:13.376Z,44.21
2018-07-23T05:56:43.677Z,46.93
2018-07-23T05:59:13.952Z,47.92
2018-07-23T06:01:44.909Z,46.29
2018-07-23T06:04:15.428Z,45.48
2018-07-23T06:06:45.996Z,47.03
2018-07-23T06:09:16.564Z,47.27
2018-07-23T06:11:47.060Z,46.51
2018-07-23T06:14:17.288Z,45.44
2018-07-23T06:16:48.009Z,44.68
2018-07-23T06:19:18.284Z,44.05
2018-07-23T06:21:48.596Z,45.01
2018-07-23T06:24:19.376Z,45.29
2018-07-23T06:26:50.173Z,44.40
2018-07-23T06:29:20.892Z,43.95
2018-07-23T06:31:51.709Z,44.12
2018-07-23T06:34:22.332Z,42.39
2018-07-23T06:36:53.050Z,42.08
2018-07-23T06:39:23.383Z,44.15
2018-07-23T06:41:54.077Z,42.75
2018-07-23T06:44:24.886Z,40.37
2018-07-23T06:46:55.652Z,40.38
2018-07-23T06:49:26.304Z,41.63
2018-07-23T06:51:56.453Z,41.32
2018-07-23T06:54:27.029Z,40.72
2018-07-23T06:56:57.845Z,40.14
2018-07-23T06:59:28.504Z,41.76
2018-07-23T07:01:59.281Z,41.82
2018-07-23T07:04:29.891Z,39.58
2018-07-23T07:06:59.972Z,38.80
2018-07-23T07:09:30.997Z,37.95
2018-07-23T07:12:01.568Z,37.62
2018-07-23T07:14:32.402Z,38.92
2018-07-23T07:17:03.106Z,35.68
2018-07-23T07:19:33.780Z,36.78
2018-07-23T07:22:04.429Z,34.52
2018-07-23T07:24:35.308Z,35.57
2018-07-23T07:27:06.061Z,35.90
2018-07-23T07:29:36.960Z,34.70
2018-07-23T07:32:07.701Z,35.65
2018-07-23T07:34:38.783Z,34.05
2018-07-23T07:37:09.437Z,35.10
2018-07-23T07:39:40.260Z,34.89
2018-07-23T07:42:10.816Z,35.15
2018-07-23T07:44:41.596Z,34.59
2018-07-23T07:47:12.142Z,36.02
2018-07-23T07:49:42.288Z,34.92
2018-07-23T07:52:13.006Z,34.58
2018-07-23T07:54:44.129Z,33.36
2018-07-23T07:57:14.676Z,33.38
2018-07-23T07:59:45.513Z,35.09
2018-07-23T08:02:15.932Z,32.77
2018-07-23T08:04:47.128Z,34.02
2018-07-23T08:07:17.762Z,34.93
2018-07-23T08:09:48.604Z,34.55
2018-07-23T08:12:19.308Z,34.49
2018-07-23T08:14:49.984Z,34.61
2018-07-23T08:17:20.049Z,32.65
2018-07-23T08:19:50.685Z,33.51
2018-07-23T08:22:21.382Z,31.99
2018-07-23T08:24:52.097Z,33.23
2018-07-23T08:27:22.757Z,34.06
2018-07-23T08:29:53.571Z,32.29
2018-07-23T08:32:24.381Z,32.17
2018-07-23T08:34:55.225Z,33.35
2018-07-23T08:37:26.014Z,32.47
2018-07-23T08:39:56.877Z,32.02
2018-07-23T08:42:27.376Z,29.70
2018-07-23T08:44:58.272Z,30.91
2018-07-23T08:47:28.832Z,30.99
2018-07-23T08:49:59.577Z,32.58
2018-07-23T08:52:30.363Z,31.67
2018-07-23T08:55:00.496Z,34.01
2018-07-23T08:57:31.301Z,32.36
2018-07-23T09:00:02.090Z,32.69
2018-07-23T09:02:32.812Z,33.84
2018-07-23T09:05:03.613Z,32.71
2018-07-23T09:07:34.184Z,32.39
2018-07-23T09:10:05.092Z,29.97
2018-07-23T09:12:35.634Z,30.33
2018-07-23T09:15:06.741Z,32.57
2018-07-23T09:17:37.425Z,34.33
2018-07-23T09:20:08.521Z,31.27
2018-07-23T09:22:39.158Z,27.37
2018-07-23T09:25:09.948Z,28.76
2018-07-23T09:27:40.593Z,28.81
2018-07-23T09:30:16.468Z,30.07
2018-07-23T09:32:47.053Z,27.63
2018-07-23T09:35:17.842Z,29.94
2018-07-23T09:37:48.405Z,30.80
2018-07-23T09:40:19.141Z,33.07
2018-07-23T09:42:49.780Z,34.57
2018-07-23T09:45:20.665Z,33.47
2018-07-23T09:47:51.302Z,31.63
2018-07-23T09:50:22.097Z,31.55
2018-07-23T09:52:52.508Z,30.82
2018-07-23T09:55:23.248Z,32.03
2018-07-23T09:57:53.930Z,30.56
2018-07-23T10:01:28.450Z,30.49
2018-07-23T10:03:59.246Z,28.85
2018-07-23T10:06:29.921Z,28.20
2018-07-23T10:09:00.590Z,28.07
2018-07-23T10:11:31.489Z,27.52
2018-07-23T10:14:02.073Z,28.17
2018-07-23T10:16:32.909Z,32.34
2018-07-23T10:19:03.602Z,32.13
2018-07-23T10:21:34.319Z,30.11
2018-07-23T10:24:04.992Z,28.16
2018-07-23T10:26:35.784Z,29.12
2018-07-23T10:29:06.429Z,29.32
2018-07-23T10:31:37.232Z,28.49
2018-07-23T10:34:08.036Z,27.70
2018-07-23T10:36:38.302Z,27.40
2018-07-23T10:39:11.227Z,29.32
2018-07-23T10:41:42.093Z,27.43
2018-07-23T10:44:12.783Z,26.14
2018-07-23T10:46:43.634Z,25.48
2018-07-23T10:49:14.209Z,24.43
2018-07-23T10:51:45.171Z,24.65
2018-07-23T10:54:15.809Z,24.05
2018-07-23T10:56:46.685Z,24.29
2018-07-23T10:59:17.375Z,24.40
2018-07-23T11:01:48.049Z,22.48
2018-07-23T11:04:18.313Z,21.76
2018-07-23T11:06:49.140Z,25.31
2018-07-23T11:09:19.892Z,25.71
2018-07-23T11:11:51.055Z,25.20
2018-07-23T11:14:21.826Z,25.83
2018-07-23T11:16:52.570Z,24.84
2018-07-23T11:19:23.260Z,27.58
2018-07-23T11:21:54.280Z,25.41
2018-07-23T11:24:24.930Z,26.96
2018-07-23T11:26:55.956Z,26.75
2018-07-23T11:29:26.634Z,25.99
2018-07-23T11:31:57.390Z,27.13
2018-07-23T11:34:28.110Z,27.96
2018-07-23T11:36:58.797Z,25.58
2018-07-23T11:39:29.369Z,27.97
2018-07-23T11:42:00.250Z,28.75
2018-07-23T11:44:31.019Z,35.64
2018-07-23T11:47:01.869Z,35.94
2018-07-23T11:49:32.661Z,37.30
2018-07-23T11:52:03.805Z,35.89
2018-07-23T11:54:34.440Z,37.21
2018-07-23T11:57:05.309Z,37.04
2018-07-23T11:59:35.981Z,38.16
2018-07-23T12:02:07.181Z,36.83
2018-07-23T12:04:37.961Z,36.27
2018-07-23T12:07:09.139Z,37.25
2018-07-23T12:09:39.677Z,36.55
2018-07-23T12:12:10.307Z,36.70
2018-07-23T12:14:40.886Z,37.75
2018-07-23T12:17:11.671Z,35.02
2018-07-23T12:19:42.276Z,35.58
2018-07-23T12:22:13.044Z,36.93
2018-07-23T12:24:43.766Z,35.72
2018-07-23T12:27:14.289Z,35.56
2018-07-23T12:29:44.853Z,35.31
2018-07-23T12:32:15.840Z,35.45
2018-07-23T12:34:46.416Z,35.64
2018-07-23T12:37:17.257Z,36.62
2018-07-23T12:39:47.947Z,35.90
2018-07-23T12:42:18.722Z,35.47
2018-07-23T12:44:49.404Z,34.73
2018-07-23T12:47:20.223Z,33.51
2018-07-23T12:49:50.881Z,34.56
2018-07-23T12:52:21.624Z,30.59
2018-07-23T12:54:51.848Z,29.94
2018-07-23T12:57:22.826Z,30.31
2018-07-23T12:59:53.624Z,31.01
2018-07-23T13:02:24.456Z,31.28
2018-07-23T13:04:55.269Z,31.11
2018-07-23T13:07:26.015Z,32.49
2018-07-23T13:09:56.430Z,30.43
2018-07-23T13:12:27.149Z,29.91
2018-07-23T13:14:58.157Z,29.90
2018-07-23T13:17:28.820Z,28.52
2018-07-23T13:19:59.512Z,28.58
2018-07-23T13:22:30.089Z,29.71
2018-07-23T13:25:00.443Z,28.02
2018-07-23T13:27:30.960Z,28.84
2018-07-23T13:30:01.632Z,29.56
2018-07-23T13:32:32.661Z,31.02
2018-07-23T13:35:03.301Z,32.32
2018-07-23T13:37:35.389Z,33.87
2018-07-23T13:40:06.186Z,34.91
2018-07-23T13:42:37.077Z,34.04
2018-07-23T13:45:07.724Z,33.77
2018-07-23T13:47:38.753Z,34.55
2018-07-23T13:50:09.301Z,36.37
2018-07-23T13:52:40.381Z,35.25
2018-07-23T13:55:11.069Z,35.99
2018-07-23T13:57:41.816Z,35.72
2018-07-23T14:00:12.469Z,35.62
2018-07-23T14:02:43.342Z,35.79
2018-07-23T14:05:13.764Z,36.18
2018-07-23T14:07:44.656Z,35.03
2018-07-23T14:10:15.410Z,34.77
2018-07-23T14:12:46.450Z,35.09
2018-07-23T14:15:17.127Z,35.34
2018-07-23T14:17:47.877Z,35.54
2018-07-23T14:20:18.666Z,37.08
2018-07-23T14:22:49.377Z,34.91
2018-07-23T14:25:20.014Z,38.14
2018-07-23T14:27:50.737Z,39.05
2018-07-23T14:30:21.577Z,37.39
2018-07-23T14:32:52.276Z,42.25
2018-07-23T14:35:22.889Z,44.05
2018-07-23T14:37:53.707Z,44.82
2018-07-23T14:40:24.362Z,46.65
2018-07-23T14:42:55.151Z,45.23
2018-07-23T14:45:25.772Z,47.67
2018-07-23T14:47:55.932Z,44.18
2018-07-23T14:50:26.477Z,44.98
2018-07-23T14:52:57.481Z,44.82
2018-07-23T14:55:28.233Z,46.84
2018-07-23T14:57:59.269Z,50.37
2018-07-23T15:00:29.866Z,46.29
2018-07-23T15:03:00.513Z,46.26
2018-07-23T15:05:30.695Z,46.79
2018-07-23T15:08:01.899Z,48.79
2018-07-23T15:10:32.648Z,48.97
2018-07-23T15:13:03.534Z,49.18
2018-07-23T15:15:33.925Z,52.60
2018-07-23T15:18:04.454Z,52.63
2018-07-23T15:20:35.162Z,54.44
2018-07-23T15:23:06.022Z,55.99
2018-07-23T15:25:37.006Z,54.69
2018-07-23T15:28:07.724Z,51.92
2018-07-23T15:30:38.011Z,52.23
2018-07-23T15:33:09.110Z,49.85
2018-07-23T15:35:40.125Z,49.93
2018-07-23T15:38:10.896Z,50.22
2018-07-23T15:40:41.760Z,51.42
2018-07-23T15:43:26.358Z,52.15
2018-07-23T15:45:57.442Z,51.13
2018-07-23T15:48:28.035Z,51.29
2018-07-23T15:50:58.661Z,49.86
2018-07-23T15:53:30.073Z,50.02
2018-07-23T15:56:00.576Z,50.38
2018-07-23T15:58:30.932Z,52.81
2018-07-23T16:01:01.936Z,52.08
2018-07-23T16:03:35.753Z,53.41
2018-07-23T16:06:07.116Z,52.83
2018-07-23T16:08:37.588Z,51.81
2018-07-23T16:11:08.506Z,51.65
2018-07-23T16:13:38.841Z,52.40
2018-07-23T16:16:09.336Z,53.26
2018-07-23T16:18:40.119Z,54.02
2018-07-23T16:21:10.506Z,56.99
2018-07-23T16:23:40.737Z,57.09
2018-07-23T16:26:11.065Z,57.46
2018-07-23T16:28:41.430Z,57.96
2018-07-23T16:31:12.013Z,57.52
2018-07-23T16:33:42.700Z,56.58
2018-07-23T16:36:13.590Z,56.35
2018-07-23T16:38:44.255Z,56.56
2018-07-23T16:41:14.651Z,59.82
2018-07-23T16:43:44.918Z,58.28
2018-07-23T16:46:15.401Z,58.38
2018-07-23T16:48:45.696Z,60.21
2018-07-23T16:51:16.057Z,59.09
2018-07-23T16:53:46.562Z,60.44
2018-07-23T16:56:17.655Z,60.64
2018-07-23T16:58:47.921Z,60.53
2018-07-23T17:01:18.719Z,59.23
2018-07-23T17:03:49.462Z,58.65
2018-07-23T17:06:20.330Z,57.64
2018-07-23T17:08:51.205Z,58.07
2018-07-23T17:11:22.282Z,56.31
2018-07-23T17:13:52.815Z,57.12
2018-07-23T17:16:23.472Z,56.48
2018-07-23T17:18:53.894Z,56.21
2018-07-23T17:21:24.446Z,55.70
2018-07-23T17:23:55.258Z,54.81
2018-07-23T17:26:26.059Z,55.13
2018-07-23T17:28:56.933Z,54.83
2018-07-23T17:31:28.182Z,54.89
2018-07-23T17:33:59.311Z,54.07
2018-07-23T17:36:30.096Z,54.06
2018-07-23T17:39:00.969Z,55.35
2018-07-23T17:41:31.648Z,56.32
2018-07-23T17:44:03.016Z,56.17
2018-07-23T17:46:34.041Z,57.26
2018-07-23T17:49:04.916Z,57.83
2018-07-23T17:51:35.979Z,58.24
2018-07-23T17:54:06.612Z,58.40
2018-07-23T17:56:37.401Z,57.62
2018-07-23T17:59:07.881Z,56.78
2018-07-23T18:01:38.680Z,55.85
2018-07-23T18:04:09.059Z,55.63
2018-07-23T18:06:39.694Z,56.15
2018-07-23T18:09:12.659Z,55.83
2018-07-23T18:11:43.889Z,57.65
2018-07-23T18:14:14.772Z,57.63
2018-07-23T18:16:45.499Z,58.07
2018-07-23T18:19:16.465Z,58.74
2018-07-23T18:21:47.556Z,57.00
2018-07-23T18:24:18.064Z,58.00
2018-07-23T18:26:48.749Z,58.08
2018-07-23T18:29:19.372Z,57.52
2018-07-23T18:31:50.172Z,57.70
2018-07-23T18:34:20.748Z,57.88
2018-07-23T18:36:51.424Z,57.83
2018-07-23T18:39:21.966Z,57.09
2018-07-23T18:41:52.582Z,59.09
2018-07-23T18:44:22.913Z,59.95
2018-07-23T18:46:53.341Z,61.55
2018-07-23T18:49:41.557Z,62.63
2018-07-23T18:52:12.952Z,62.88
2018-07-23T18:54:44.841Z,62.12
2018-07-23T18:57:15.534Z,62.33
2018-07-23T18:59:46.247Z,61.20
2018-07-23T19:02:18.373Z,62.04
2018-07-23T19:04:49.003Z,61.03
2018-07-23T19:07:19.765Z,59.79
2018-07-23T19:09:50.505Z,60.95
2018-07-23T19:12:21.489Z,61.31
2018-07-23T19:14:52.089Z,63.46
2018-07-23T19:17:25.344Z,63.29
2018-07-23T19:19:56.101Z,65.07
2018-07-23T19:22:26.699Z,67.09
2018-07-23T19:24:56.860Z,65.04
2018-07-23T19:27:28.348Z,65.00
2018-07-23T19:29:58.696Z,64.88
2018-07-23T19:32:29.136Z,63.11
2018-07-23T19:34:59.476Z,62.25
2018-07-23T19:37:30.157Z,63.25
2018-07-23T19:40:00.470Z,63.48
2018-07-23T19:42:31.088Z,63.75
2018-07-23T19:45:01.702Z,65.20
2018-07-23T19:47:32.110Z,64.62
2018-07-23T19:50:02.815Z,65.53
2018-07-23T19:52:33.275Z,65.73
2018-07-23T19:55:03.688Z,66.32
2018-07-23T19:57:34.521Z,65.90
2018-07-23T20:00:05.633Z,65.56
2018-07-23T20:02:36.361Z,66.19
2018-07-23T20:05:07.801Z,65.35
2018-07-23T20:07:38.149Z,65.51
2018-07-23T20:10:08.521Z,66.58
2018-07-23T20:12:39.710Z,66.86
2018-07-23T20:15:10.146Z,67.33
2018-07-23T20:17:40.448Z,67.01
2018-07-23T20:20:10.890Z,66.45
2018-07-23T20:22:41.895Z,66.42
2018-07-23T20:25:12.606Z,65.73
2018-07-23T20:27:43.721Z,65.90
2018-07-23T20:30:14.257Z,65.62
2018-07-23T20:32:45.103Z,64.96
2018-07-23T20:35:15.795Z,65.79
2018-07-23T20:37:46.910Z,65.14
2018-07-23T20:40:17.718Z,65.78
2018-07-23T20:42:48.381Z,65.43
2018-07-23T20:45:19.073Z,65.69
2018-07-23T20:47:51.834Z,65.00
2018-07-23T20:50:23.339Z,64.61
2018-07-23T20:52:54.400Z,64.80
2018-07-23T20:55:24.997Z,64.79
2018-07-23T20:57:56.626Z,64.52
2018-07-23T21:00:27.623Z,64.33
2018-07-23T21:02:58.576Z,64.20
2018-07-23T21:05:29.276Z,64.99
2018-07-23T21:08:00.727Z,64.20
2018-07-23T21:10:31.516Z,64.76
2018-07-23T21:13:02.573Z,66.14
2018-07-23T21:15:33.678Z,66.28
2018-07-23T21:18:04.405Z,66.17
2018-07-23T21:20:35.884Z,66.50
2018-07-23T21:23:06.898Z,67.28
2018-07-23T21:25:37.860Z,66.33
2018-07-23T21:28:08.992Z,66.06
2018-07-23T21:30:39.377Z,67.02
2018-07-23T21:33:10.991Z,66.70
2018-07-23T21:35:41.784Z,66.64
2018-07-23T21:38:12.712Z,66.94
2018-07-23T21:40:43.426Z,67.02
2018-07-23T21:43:14.368Z,67.00
2018-07-23T21:45:44.209Z,67.18
2018-07-23T21:48:14.674Z,67.06
2018-07-23T21:50:45.672Z,67.84
2018-07-23T21:53:16.428Z,67.21
2018-07-23T21:55:46.954Z,67.42
2018-07-23T21:58:17.601Z,67.12
2018-07-23T22:00:47.873Z,67.35
2018-07-23T22:03:18.336Z,66.59
2018-07-23T22:05:48.971Z,66.76
2018-07-23T22:08:19.346Z,66.76
2018-07-23T22:10:50.178Z,67.02
2018-07-23T22:13:20.422Z,66.56
2018-07-23T22:15:51.553Z,66.43
2018-07-23T22:18:21.996Z,65.62
2018-07-23T22:20:52.284Z,65.84
2018-07-23T22:23:22.649Z,65.90
2018-07-23T22:25:52.916Z,66.08
2018-07-23T22:28:23.257Z,66.37
2018-07-23T22:30:53.797Z,65.40
2018-07-23T22:33:24.249Z,64.42
2018-07-23T22:35:54.545Z,64.50
2018-07-23T22:38:24.857Z,64.23
2018-07-23T22:40:55.472Z,65.25
2018-07-23T22:43:26.249Z,64.80
2018-07-23T22:45:56.586Z,64.26
2018-07-23T22:48:27.288Z,64.01
2018-07-23T22:50:57.524Z,64.09
2018-07-23T22:53:28.381Z,64.85
2018-07-23T22:56:00.657Z,64.35
2018-07-23T22:58:31.233Z,64.12
2018-07-23T23:01:01.638Z,64.77
2018-07-23T23:03:31.956Z,63.62
2018-07-23T23:06:02.204Z,62.94
2018-07-23T23:08:33.160Z,63.56
2018-07-23T23:11:03.846Z,64.00
2018-07-23T23:13:34.586Z,63.70
2018-07-23T23:16:05.269Z,63.79
2018-07-23T23:18:35.825Z,64.43
2018-07-23T23:21:06.325Z,63.54
2018-07-23T23:23:36.620Z,64.54
2018-07-23T23:26:07.041Z,64.14
2018-07-23T23:28:37.384Z,64.22
2018-07-23T23:31:07.236Z,64.07
2018-07-23T23:33:38.997Z,64.51
2018-07-23T23:36:09.233Z,63.56
2018-07-23T23:38:40.014Z,63.79
2018-07-23T23:41:10.346Z,64.08
2018-07-23T23:43:40.808Z,63.43
2018-07-23T23:46:11.118Z,63.98
2018-07-23T23:48:41.514Z,64.54
2018-07-23T23:51:11.744Z,66.71
2018-07-23T23:53:42.103Z,65.77
2018-07-23T23:56:12.397Z,64.54
2018-07-23T23:58:42.885Z,63.99
